Terminal Aerodrome Forecast
Issued by NWS

Home | Current Version | Previous Version | Text Only | Print | Product List | Glossary On
Versions: 1 2 3 4 5 6 7 8 9 10 11 12 13 14 15 16 17 18 19 20 21 22 23 24 25 26 27
000
FTPQ31 PGUM 210500
TAFPQ
TAF

PKWA 210520Z 2106/2206 07008KT P6SM VCSH SCT018 SCT050 BKN110
      TEMPO 2106/2108 12010G18KT 2SM +SHRA SCT012CB BKN025=

USA.gov is the U.S. government's official web portal to all federal, state and local government web resources and services.